Time;durP1;ratioP1;P1;durP2;ratioP2;P2;SDS_P1;SDS_P2;PMS_P1;PMS_P2;Temp;Humidity;BMP_temperature;BMP_pressure;BME280_temperature;BME280_humidity;BME280_pressure;Samples;Min_cycle;Max_cycle;Signal;HPM_P1;HPM_P2
2021/07/29 00:00:41;;;;;;;11.33;6.47;;;;;;;12.26;100.00;93817.41;5095850;28;20226;-78
2021/07/29 00:03:09;;;;;;;16.07;6.43;;;;;;;12.20;100.00;93824.25;5096057;28;20201;-79
2021/07/29 00:05:37;;;;;;;15.27;6.70;;;;;;;12.20;100.00;93820.84;5096316;28;20561;-79
2021/07/29 00:08:06;;;;;;;11.23;5.67;;;;;;;12.23;100.00;93823.06;5096271;28;20202;-78
2021/07/29 00:10:35;;;;;;;12.60;6.20;;;;;;;12.24;100.00;93813.38;5095584;28;20201;-78
2021/07/29 00:13:05;;;;;;;12.47;6.47;;;;;;;12.22;100.00;93810.97;5096008;28;20205;-79
2021/07/29 00:15:31;;;;;;;12.20;6.20;;;;;;;12.19;100.00;93819.22;5095865;28;20198;-79
2021/07/29 00:20:43;;;;;;;18.13;6.57;;;;;;;12.21;100.00;93815.41;5095961;28;20232;-78
2021/07/29 00:23:10;;;;;;;10.63;6.60;;;;;;;12.17;100.00;93811.63;5095904;28;20224;-78
2021/07/29 00:25:39;;;;;;;12.70;5.87;;;;;;;12.20;100.00;93798.09;5095775;28;20554;-79
2021/07/29 00:28:05;;;;;;;10.50;6.20;;;;;;;12.18;100.00;93797.50;5095832;28;20280;-78
2021/07/29 00:30:36;;;;;;;14.83;6.30;;;;;;;12.21;100.00;93789.22;5095945;28;20206;-79
2021/07/29 00:33:07;;;;;;;10.73;6.13;;;;;;;12.21;100.00;93799.69;5095966;28;20271;-79
2021/07/29 00:35:36;;;;;;;11.03;5.80;;;;;;;12.19;100.00;93806.97;5095703;28;20233;-78
2021/07/29 00:38:03;;;;;;;10.13;5.90;;;;;;;12.11;100.00;93804.59;5095817;28;20198;-78
2021/07/29 00:40:30;;;;;;;15.80;6.17;;;;;;;12.17;100.00;93805.56;5095290;28;20222;-80
2021/07/29 00:42:57;;;;;;;16.70;6.27;;;;;;;12.15;100.00;93790.06;5095674;28;20206;-80
2021/07/29 00:45:27;;;;;;;12.43;6.07;;;;;;;12.10;100.00;93799.56;5095846;28;20197;-79
2021/07/29 00:47:55;;;;;;;13.80;5.87;;;;;;;12.10;100.00;93791.72;5095411;28;20198;-78
2021/07/29 00:50:24;;;;;;;11.47;6.20;;;;;;;12.05;100.00;93797.56;5094256;28;20221;-79
2021/07/29 00:52:55;;;;;;;11.67;6.00;;;;;;;11.98;100.00;93804.66;5095279;28;20201;-78
2021/07/29 00:55:22;;;;;;;10.13;5.90;;;;;;;11.99;100.00;93801.00;5095195;28;20198;-78
2021/07/29 00:57:50;;;;;;;11.63;5.90;;;;;;;11.84;100.00;93799.44;5095372;28;20206;-79
2021/07/29 01:00:18;;;;;;;12.73;5.30;;;;;;;11.77;100.00;93798.66;5095135;28;20226;-79
2021/07/29 01:02:44;;;;;;;13.73;6.10;;;;;;;11.81;100.00;93794.63;5095250;28;20198;-78
2021/07/29 01:05:16;;;;;;;13.30;6.33;;;;;;;11.86;100.00;93796.63;5095086;28;20202;-79
2021/07/29 01:07:46;;;;;;;12.03;6.33;;;;;;;11.87;100.00;93787.75;5094977;28;20289;-79
2021/07/29 01:10:13;;;;;;;10.97;6.23;;;;;;;11.79;100.00;93793.22;5094135;28;20684;-79
2021/07/29 01:12:45;;;;;;;12.03;6.30;;;;;;;11.72;100.00;93795.84;5094802;28;20653;-79
2021/07/29 01:15:12;;;;;;;11.97;6.00;;;;;;;11.73;100.00;93794.06;5091056;28;20198;-78
2021/07/29 01:17:38;;;;;;;12.00;6.57;;;;;;;11.77;100.00;93793.41;5094258;28;20198;-79
2021/07/29 01:20:09;;;;;;;15.13;7.00;;;;;;;11.76;100.00;93783.97;5094416;28;20226;-79
2021/07/29 01:22:38;;;;;;;13.63;6.43;;;;;;;11.82;100.00;93791.00;5094306;28;20557;-77
2021/07/29 01:25:10;;;;;;;14.20;6.63;;;;;;;11.82;100.00;93790.19;5094303;28;20206;-79
2021/07/29 01:27:37;;;;;;;10.93;6.03;;;;;;;11.76;100.00;93791.81;5094419;28;20202;-78
2021/07/29 01:30:12;;;;;;;12.13;6.53;;;;;;;11.85;100.00;93793.19;5094373;28;20233;-79
2021/07/29 01:32:41;;;;;;;16.03;6.07;;;;;;;11.89;100.00;93787.53;5094380;28;20201;-79
2021/07/29 01:35:09;;;;;;;14.27;6.30;;;;;;;11.86;100.00;93788.78;5093815;28;20230;-79
2021/07/29 01:37:41;;;;;;;12.13;6.50;;;;;;;11.84;100.00;93783.75;5094225;28;20251;-78
2021/07/29 01:40:13;;;;;;;11.53;5.93;;;;;;;11.79;100.00;93775.72;5093810;28;20233;-80
2021/07/29 01:42:41;;;;;;;12.63;6.37;;;;;;;11.69;100.00;93782.38;5094317;28;20206;-78
2021/07/29 01:45:09;;;;;;;10.33;5.83;;;;;;;11.73;100.00;93784.38;5082318;28;20199;-77
2021/07/29 01:47:37;;;;;;;12.87;5.87;;;;;;;11.71;100.00;93783.81;5073378;28;20198;-79
2021/07/29 01:50:04;;;;;;;9.70;5.80;;;;;;;11.60;100.00;93787.06;5073201;28;20207;-79
2021/07/29 01:52:30;;;;;;;11.00;6.00;;;;;;;11.59;100.00;93785.44;5074956;28;20195;-79
2021/07/29 01:54:59;;;;;;;9.83;5.70;;;;;;;11.57;100.00;93787.47;5093920;28;20254;-78
2021/07/29 01:57:26;;;;;;;9.70;5.37;;;;;;;11.48;100.00;93784.28;5093614;28;20208;-80
2021/07/29 01:59:52;;;;;;;11.23;5.57;;;;;;;11.44;100.00;93786.50;5093628;28;20194;-80
2021/07/29 02:02:19;;;;;;;11.83;5.80;;;;;;;11.47;100.00;93783.47;5093449;28;20194;-77
2021/07/29 02:04:45;;;;;;;15.03;6.63;;;;;;;11.44;100.00;93789.13;5093987;28;20201;-79
2021/07/29 02:07:12;;;;;;;10.30;5.80;;;;;;;11.42;100.00;93791.13;5094230;28;20205;-78
2021/07/29 02:09:38;;;;;;;12.37;5.80;;;;;;;11.46;100.00;93788.91;5093467;28;20206;-78
2021/07/29 02:12:07;;;;;;;12.10;6.67;;;;;;;11.53;100.00;93784.47;5094554;28;20202;-79
2021/07/29 02:14:33;;;;;;;12.30;7.20;;;;;;;11.57;100.00;93783.03;5093914;28;20206;-79
2021/07/29 02:17:00;;;;;;;13.00;6.20;;;;;;;11.61;100.00;93772.97;5093863;28;20209;-78
2021/07/29 02:19:26;;;;;;;10.57;5.57;;;;;;;11.66;100.00;93781.00;5093841;28;20237;-79
2021/07/29 02:21:53;;;;;;;12.50;5.83;;;;;;;11.61;100.00;93786.06;5093745;28;20233;-79
2021/07/29 02:24:19;;;;;;;10.87;5.27;;;;;;;11.59;100.00;93780.19;5093577;28;20198;-79
2021/07/29 02:26:46;;;;;;;11.33;5.70;;;;;;;11.61;100.00;93783.44;5093520;28;20540;-79
2021/07/29 02:29:13;;;;;;;11.13;6.17;;;;;;;11.59;100.00;93782.81;5093341;28;20200;-79
2021/07/29 02:31:40;;;;;;;9.10;5.87;;;;;;;11.63;100.00;93779.59;5093173;28;20683;-78
2021/07/29 02:34:06;;;;;;;10.13;5.67;;;;;;;11.65;100.00;93787.22;5093458;28;20553;-80
2021/07/29 02:36:33;;;;;;;10.27;5.60;;;;;;;11.63;100.00;93784.81;5093369;28;20197;-80
2021/07/29 02:39:00;;;;;;;12.23;5.57;;;;;;;11.60;100.00;93781.81;5093353;28;20280;-79
2021/07/29 02:41:26;;;;;;;9.10;5.63;;;;;;;11.57;100.00;93784.84;5093056;28;20332;-78
2021/07/29 02:43:53;;;;;;;8.60;5.00;;;;;;;11.63;100.00;93786.66;5093308;28;20194;-81
2021/07/29 02:46:20;;;;;;;8.97;5.53;;;;;;;11.72;100.00;93788.00;5093366;28;20230;-81
2021/07/29 02:48:47;;;;;;;10.53;6.13;;;;;;;11.74;100.00;93786.00;5093281;28;20194;-80
2021/07/29 02:51:13;;;;;;;15.87;5.40;;;;;;;11.75;100.00;93792.81;5093248;28;20210;-79
2021/07/29 02:53:40;;;;;;;11.60;5.40;;;;;;;11.80;100.00;93793.00;5092968;28;20198;-80
2021/07/29 02:56:08;;;;;;;9.53;5.23;;;;;;;11.87;100.00;93802.66;5093008;28;20198;-80
2021/07/29 02:58:47;;;;;;;8.67;4.83;;;;;;;12.01;100.00;93799.78;5093360;28;20209;-83
2021/07/29 03:01:13;;;;;;;10.00;4.93;;;;;;;12.03;100.00;93792.53;5093093;28;20320;-79
2021/07/29 03:03:41;;;;;;;8.50;5.33;;;;;;;12.00;100.00;93792.16;5093048;28;20194;-81
2021/07/29 03:06:08;;;;;;;10.33;5.00;;;;;;;11.98;100.00;93796.81;5093069;28;20199;-79
2021/07/29 03:08:34;;;;;;;8.57;5.53;;;;;;;12.05;100.00;93797.56;5092927;28;20205;-81
2021/07/29 03:11:01;;;;;;;7.97;4.73;;;;;;;12.04;100.00;93795.97;5092345;28;20202;-79
2021/07/29 03:13:27;;;;;;;13.17;5.57;;;;;;;12.01;100.00;93794.56;5092381;28;20197;-80
2021/07/29 03:15:54;;;;;;;10.27;5.33;;;;;;;12.01;100.00;93794.56;5093023;28;20198;-79
2021/07/29 03:18:21;;;;;;;9.83;4.80;;;;;;;12.03;100.00;93799.59;5093092;28;20198;-80
2021/07/29 03:20:49;;;;;;;8.48;5.18;;;;;;;12.08;100.00;93799.75;5091555;28;20939;-81
2021/07/29 03:23:15;;;;;;;7.33;4.87;;;;;;;12.11;100.00;93788.09;5092652;28;20265;-79
2021/07/29 03:25:42;;;;;;;10.20;4.60;;;;;;;12.14;100.00;93796.31;5092838;28;20669;-79
2021/07/29 03:28:08;;;;;;;9.87;4.80;;;;;;;12.16;100.00;93796.91;5092988;28;20299;-79
2021/07/29 03:30:34;;;;;;;10.67;4.77;;;;;;;12.19;100.00;93791.25;5092752;28;20204;-78
2021/07/29 03:33:02;;;;;;;10.30;4.90;;;;;;;12.26;100.00;93791.22;5093505;28;20205;-80
2021/07/29 03:35:28;;;;;;;6.63;4.17;;;;;;;12.19;100.00;93800.91;5096467;28;20692;-77
2021/07/29 03:37:56;;;;;;;9.13;4.07;;;;;;;12.13;100.00;93792.09;5096671;28;20209;-78
2021/07/29 03:40:22;;;;;;;8.40;4.17;;;;;;;12.07;100.00;93790.31;5096690;28;20205;-77
2021/07/29 03:42:49;;;;;;;8.00;4.53;;;;;;;12.13;100.00;93786.84;5096807;28;20210;-79
2021/07/29 03:45:15;;;;;;;9.10;4.90;;;;;;;12.12;100.00;93787.06;5096653;28;20198;-80
2021/07/29 03:47:42;;;;;;;9.30;4.47;;;;;;;12.14;100.00;93788.47;5096660;28;20201;-78
2021/07/29 03:50:09;;;;;;;8.90;4.50;;;;;;;12.20;100.00;93787.59;5096376;28;20201;-78
2021/07/29 03:52:39;;;;;;;9.83;4.60;;;;;;;12.18;100.00;93779.19;5096696;28;20248;-79
2021/07/29 03:55:08;;;;;;;8.53;4.60;;;;;;;12.24;100.00;93788.03;5096289;28;20256;-80
2021/07/29 03:57:34;;;;;;;8.93;4.57;;;;;;;12.23;100.00;93796.09;5096435;28;20198;-80
2021/07/29 04:00:03;;;;;;;10.60;4.33;;;;;;;12.31;100.00;93798.44;5096244;28;20206;-80
2021/07/29 04:02:29;;;;;;;7.50;4.40;;;;;;;12.33;100.00;93801.66;5096288;28;20737;-80
2021/07/29 04:04:56;;;;;;;7.87;4.37;;;;;;;12.32;100.00;93805.28;5096088;28;20198;-80
2021/07/29 04:07:22;;;;;;;8.27;4.27;;;;;;;12.28;100.00;93804.91;5095872;28;20213;-80
2021/07/29 04:09:49;;;;;;;438.93;88.30;;;;;;;12.25;100.00;93801.91;5096279;28;20202;-80
2021/07/29 04:12:17;;;;;;;8.93;4.50;;;;;;;12.28;100.00;93804.91;5096077;28;20563;-81
2021/07/29 04:14:44;;;;;;;9.70;4.17;;;;;;;12.31;100.00;93808.94;5096052;28;20202;-79
2021/07/29 04:17:11;;;;;;;9.30;4.53;;;;;;;12.33;100.00;93807.69;5095923;28;20297;-79
2021/07/29 04:19:37;;;;;;;9.50;4.67;;;;;;;12.42;100.00;93821.31;5095748;28;20197;-81
2021/07/29 04:22:06;;;;;;;80.40;9.97;;;;;;;12.51;100.00;93819.28;5094746;28;20230;-80
2021/07/29 04:24:32;;;;;;;8.93;5.22;;;;;;;12.59;100.00;93819.81;5095974;28;20202;-79
2021/07/29 04:27:00;;;;;;;113.27;15.07;;;;;;;12.85;100.00;93814.59;5095922;28;20695;-80
2021/07/29 04:29:31;;;;;;;4.23;2.10;;;;;;;12.89;100.00;93810.53;5095581;28;20201;-80
2021/07/29 04:31:58;;;;;;;5.87;3.80;;;;;;;13.04;100.00;93818.06;5095547;28;20202;-79
2021/07/29 04:34:24;;;;;;;8.05;3.78;;;;;;;13.00;100.00;93811.66;5095436;28;20225;-80
2021/07/29 04:36:52;;;;;;;6.90;4.10;;;;;;;13.06;100.00;93811.63;5095511;28;20432;-78
2021/07/29 04:39:18;;;;;;;9.87;4.13;;;;;;;13.07;100.00;93813.22;5095706;28;20251;-80
2021/07/29 04:41:45;;;;;;;5.83;4.00;;;;;;;13.12;100.00;93816.00;5095431;28;20237;-79
2021/07/29 04:44:14;;;;;;;9.63;3.83;;;;;;;13.10;100.00;93822.47;5094806;28;20201;-78
2021/07/29 04:46:43;;;;;;;10.83;3.97;;;;;;;13.05;100.00;93824.94;5094838;28;20197;-83
2021/07/29 04:49:11;;;;;;;15.03;4.17;;;;;;;13.14;100.00;93818.41;5095518;28;20206;-79
2021/07/29 04:51:38;;;;;;;7.85;3.85;;;;;;;13.23;100.00;93822.34;5095509;28;20285;-80
2021/07/29 04:54:06;;;;;;;6.43;2.40;;;;;;;13.28;100.00;93819.88;5095419;28;20198;-79
2021/07/29 04:56:33;;;;;;;33.13;5.80;;;;;;;13.37;100.00;93823.06;5095239;28;20206;-80
2021/07/29 04:58:59;;;;;;;11.00;4.22;;;;;;;13.52;100.00;93825.34;5095089;28;20205;-80
2021/07/29 05:01:26;;;;;;;6.82;4.15;;;;;;;13.50;100.00;93815.06;5095328;28;20218;-79
2021/07/29 05:03:54;;;;;;;11.82;3.72;;;;;;;13.59;100.00;93817.41;5095067;28;20299;-79
2021/07/29 05:06:21;;;;;;;218.52;58.40;;;;;;;13.60;100.00;93819.81;5095152;28;20571;-80
2021/07/29 05:08:47;;;;;;;97.03;43.10;;;;;;;13.82;100.00;93814.13;5095069;28;20546;-82
2021/07/29 05:11:13;;;;;;;4.60;2.53;;;;;;;14.14;100.00;93814.78;5095127;28;20206;-81
2021/07/29 05:13:40;;;;;;;6.60;2.95;;;;;;;14.21;100.00;93817.31;5094801;28;20198;-80
2021/07/29 05:16:07;;;;;;;6.63;3.45;;;;;;;14.33;100.00;93815.53;5095104;28;20202;-80
2021/07/29 05:18:34;;;;;;;6.63;2.70;;;;;;;14.30;100.00;93815.16;5094964;28;20206;-78
2021/07/29 05:21:03;;;;;;;3.25;1.98;;;;;;;14.45;100.00;93807.69;5094652;28;20653;-80
2021/07/29 05:23:30;;;;;;;3.72;2.60;;;;;;;14.80;100.00;93815.72;5094965;28;20230;-79
2021/07/29 05:25:57;;;;;;;394.42;114.97;;;;;;;15.06;100.00;93821.56;5094196;28;20218;-80
2021/07/29 05:28:24;;;;;;;6.30;3.10;;;;;;;15.32;100.00;93827.41;5094483;28;20206;-79
2021/07/29 05:30:50;;;;;;;6.43;3.03;;;;;;;15.39;100.00;93822.88;5094835;28;20201;-79
2021/07/29 05:33:17;;;;;;;4.68;2.80;;;;;;;15.35;100.00;93816.44;5094629;28;20201;-82
2021/07/29 05:35:43;;;;;;;4.85;2.40;;;;;;;15.44;100.00;93814.28;5094449;28;20232;-81
2021/07/29 05:38:11;;;;;;;8.93;2.45;;;;;;;15.64;100.00;93813.94;5094462;28;20209;-81
2021/07/29 05:40:38;;;;;;;4.60;2.30;;;;;;;15.89;100.00;93811.84;5094274;28;20292;-80
2021/07/29 05:43:04;;;;;;;3.72;2.83;;;;;;;16.30;100.00;93808.41;5094220;28;20715;-80
2021/07/29 05:45:32;;;;;;;3.38;2.53;;;;;;;16.41;100.00;93816.28;5094360;28;20223;-81
2021/07/29 05:47:58;;;;;;;5.05;2.15;;;;;;;16.49;100.00;93820.38;5094384;28;20237;-80
2021/07/29 05:50:25;;;;;;;3.35;2.40;;;;;;;16.79;100.00;93811.41;5094272;28;20576;-80
2021/07/29 05:52:51;;;;;;;2.63;2.22;;;;;;;16.74;100.00;93817.41;5094533;28;20205;-79
2021/07/29 05:55:19;;;;;;;4.70;2.45;;;;;;;16.88;100.00;93823.19;5094988;28;20202;-81
2021/07/29 05:57:45;;;;;;;5.95;2.42;;;;;;;16.85;100.00;93823.66;5094915;28;20194;-80
2021/07/29 06:00:13;;;;;;;3.30;2.38;;;;;;;16.85;100.00;93817.59;5094455;28;20205;-81
2021/07/29 06:02:39;;;;;;;3.67;2.30;;;;;;;17.21;100.00;93829.53;5094156;28;20226;-81
2021/07/29 06:05:06;;;;;;;3.80;2.33;;;;;;;17.48;100.00;93826.22;5094157;28;20206;-80
2021/07/29 06:07:33;;;;;;;6.68;2.25;;;;;;;17.83;100.00;93830.41;5093820;28;20448;-80
2021/07/29 06:10:00;;;;;;;4.22;2.30;;;;;;;17.96;100.00;93824.81;5093986;28;20289;-80
2021/07/29 06:12:28;;;;;;;3.88;2.25;;;;;;;18.17;100.00;93819.75;5093687;28;20198;-79
2021/07/29 06:14:54;;;;;;;3.97;2.13;;;;;;;18.28;100.00;93819.63;5093363;28;20205;-80
2021/07/29 06:17:25;;;;;;;3.67;2.00;;;;;;;18.11;100.00;93818.91;5093676;28;20656;-81
2021/07/29 06:19:52;;;;;;;3.67;1.90;;;;;;;17.80;100.00;93817.69;5093684;28;20710;-81
2021/07/29 06:22:18;;;;;;;8.23;2.30;;;;;;;17.83;100.00;93823.28;5093545;28;20218;-82
2021/07/29 06:24:45;;;;;;;3.50;2.30;;;;;;;17.72;100.00;93817.06;5093454;28;20205;-81
2021/07/29 06:27:11;;;;;;;3.03;1.90;;;;;;;18.20;100.00;93811.34;5093775;28;20202;-81
2021/07/29 06:29:39;;;;;;;4.28;1.65;;;;;;;18.89;100.00;93825.84;5092386;28;20202;-81
2021/07/29 06:32:06;;;;;;;4.10;1.90;;;;;;;19.42;100.00;93826.81;5093572;28;20209;-81
2021/07/29 06:34:35;;;;;;;4.30;2.10;;;;;;;20.05;97.16;93828.78;5093258;28;20222;-80
2021/07/29 06:37:02;;;;;;;3.42;1.83;;;;;;;20.23;88.71;93833.63;5094173;28;20665;-80
2021/07/29 06:39:29;;;;;;;4.38;1.85;;;;;;;20.18;93.43;93832.81;5093713;28;20285;-81
2021/07/29 06:41:55;;;;;;;3.28;2.00;;;;;;;19.63;91.39;93832.25;5093718;28;20593;-81
2021/07/29 06:44:21;;;;;;;4.68;2.20;;;;;;;20.01;96.36;93830.38;5093705;28;20205;-81
2021/07/29 06:46:49;;;;;;;5.60;2.10;;;;;;;20.33;96.39;93836.34;5093856;28;20228;-82
2021/07/29 06:49:16;;;;;;;6.03;1.92;;;;;;;20.55;88.27;93832.72;5093996;28;20224;-80
2021/07/29 06:51:43;;;;;;;2.10;1.73;;;;;;;20.08;90.03;93838.88;5094038;28;20260;-82
2021/07/29 06:54:09;;;;;;;3.33;2.17;;;;;;;19.93;88.68;93827.16;5092336;28;20470;-83
2021/07/29 06:56:35;;;;;;;5.82;1.95;;;;;;;19.87;93.54;93828.19;5093556;28;20201;-81
2021/07/29 06:59:02;;;;;;;2.72;2.00;;;;;;;19.87;93.55;93822.09;5093190;28;20203;-81
2021/07/29 07:01:29;;;;;;;3.70;1.98;;;;;;;19.82;93.13;93830.81;5093243;28;20224;-80
2021/07/29 07:03:57;;;;;;;4.80;2.13;;;;;;;19.78;93.35;93840.31;5092847;28;20447;-83
2021/07/29 07:06:24;;;;;;;2.80;1.77;;;;;;;19.36;89.10;93835.75;5087998;28;20214;-80
2021/07/29 07:08:50;;;;;;;4.07;2.20;;;;;;;19.05;93.35;93830.22;5091025;28;20197;-82
2021/07/29 07:11:17;;;;;;;4.05;1.92;;;;;;;19.27;94.46;93839.91;5092902;28;20706;-83
2021/07/29 07:13:44;;;;;;;4.78;1.90;;;;;;;19.25;96.72;93837.50;5093042;28;20610;-82
2021/07/29 07:16:12;;;;;;;4.30;2.13;;;;;;;19.40;94.09;93842.94;5092968;28;20233;-82
2021/07/29 07:18:39;;;;;;;3.70;2.55;;;;;;;18.81;93.48;93856.16;5092817;28;20256;-80
2021/07/29 07:21:07;;;;;;;5.03;2.35;;;;;;;18.85;94.40;93850.16;5092760;28;20201;-82
2021/07/29 07:23:34;;;;;;;4.82;2.35;;;;;;;18.81;98.59;93842.94;5092952;28;20232;-82
2021/07/29 07:26:01;;;;;;;3.50;2.22;;;;;;;19.09;97.70;93851.69;5093252;28;20204;-80
2021/07/29 07:28:27;;;;;;;3.25;2.42;;;;;;;19.16;93.63;93845.13;5092827;28;20209;-80
2021/07/29 07:30:54;;;;;;;5.18;2.20;;;;;;;18.69;91.28;93851.03;5092760;28;20206;-80
2021/07/29 07:33:20;;;;;;;3.40;1.98;;;;;;;18.67;98.25;93842.53;5092202;28;20229;-80
2021/07/29 07:35:47;;;;;;;3.72;2.30;;;;;;;18.73;96.22;93854.75;5092166;28;20229;-79
2021/07/29 07:38:14;;;;;;;3.80;2.08;;;;;;;18.41;96.84;93850.19;5092443;28;20569;-82
2021/07/29 07:40:41;;;;;;;8.15;2.50;;;;;;;18.55;100.00;93849.81;5092470;28;20653;-82
2021/07/29 07:43:08;;;;;;;3.50;2.40;;;;;;;18.49;99.73;93857.69;5092364;28;20229;-80
2021/07/29 07:45:35;;;;;;;3.67;2.17;;;;;;;18.51;99.07;93854.00;5092229;28;20198;-80
2021/07/29 07:48:02;;;;;;;6.07;2.30;;;;;;;18.59;95.99;93856.22;5092643;28;20285;-79
2021/07/29 07:50:28;;;;;;;3.95;2.05;;;;;;;18.97;94.99;93852.66;5092780;28;20205;-80
2021/07/29 07:52:55;;;;;;;3.75;2.30;;;;;;;19.18;98.85;93853.59;5092725;28;20206;-80
2021/07/29 07:55:23;;;;;;;6.10;2.40;;;;;;;19.29;95.54;93853.72;5092656;28;20210;-80
2021/07/29 07:57:49;;;;;;;5.35;2.42;;;;;;;19.63;93.41;93845.47;5092652;28;20203;-81
2021/07/29 08:00:16;;;;;;;3.40;2.28;;;;;;;19.68;91.98;93841.00;5092505;28;20209;-81
2021/07/29 08:02:43;;;;;;;5.47;2.30;;;;;;;19.59;90.93;93838.03;5092786;28;20233;-81
2021/07/29 08:05:10;;;;;;;9.07;2.50;;;;;;;19.55;92.41;93830.84;5092568;28;20207;-80
2021/07/29 08:07:36;;;;;;;4.18;2.33;;;;;;;19.90;95.20;93838.28;5092429;28;20209;-79
2021/07/29 08:10:03;;;;;;;3.92;2.17;;;;;;;19.71;90.98;93843.16;5092381;28;20202;-78
2021/07/29 08:12:31;;;;;;;3.30;2.13;;;;;;;19.84;92.87;93825.25;5092461;28;20235;-80
2021/07/29 08:14:57;;;;;;;6.38;2.28;;;;;;;19.20;88.07;93826.88;5092922;28;20205;-81
2021/07/29 08:17:24;;;;;;;4.70;2.20;;;;;;;19.42;88.80;93824.97;5092688;28;20202;-81
2021/07/29 08:19:50;;;;;;;5.80;2.38;;;;;;;20.05;94.57;93823.47;5094287;28;20202;-81
2021/07/29 08:22:17;;;;;;;4.93;2.33;;;;;;;20.58;85.84;93821.56;5095708;28;20218;-81
2021/07/29 08:24:43;;;;;;;4.25;2.10;;;;;;;20.59;85.62;93833.78;5094309;28;20661;-82
2021/07/29 08:27:10;;;;;;;4.10;2.25;;;;;;;20.09;84.91;93838.63;5095708;28;20220;-77
2021/07/29 08:29:38;;;;;;;5.20;2.30;;;;;;;19.59;89.87;93831.97;5095347;28;20206;-78
2021/07/29 08:32:06;;;;;;;4.45;2.47;;;;;;;19.20;92.12;93838.28;5096088;28;20198;-80
2021/07/29 08:34:32;;;;;;;5.53;2.30;;;;;;;18.97;89.54;93838.63;5095745;28;20619;-77
2021/07/29 08:36:59;;;;;;;4.40;2.53;;;;;;;18.59;92.23;93830.56;5095760;28;20202;-79
2021/07/29 08:39:25;;;;;;;6.20;2.60;;;;;;;18.49;92.31;93833.09;5095542;28;20197;-79
2021/07/29 08:41:52;;;;;;;3.92;2.38;;;;;;;18.75;94.97;93839.44;5095656;28;20302;-78
2021/07/29 08:44:18;;;;;;;4.65;2.08;;;;;;;18.81;91.05;93827.84;5095651;28;20256;-78
2021/07/29 08:46:46;;;;;;;6.75;2.05;;;;;;;19.01;90.51;93832.56;5095640;28;20206;-79
2021/07/29 08:49:14;;;;;;;4.35;2.00;;;;;;;19.12;90.28;93832.66;5095465;28;20198;-76
2021/07/29 08:51:41;;;;;;;3.55;2.17;;;;;;;19.25;88.09;93837.50;5095432;28;20198;-76
2021/07/29 08:54:11;;;;;;;3.55;2.20;;;;;;;19.77;91.40;93838.72;5095329;28;20198;-79
2021/07/29 08:56:38;;;;;;;3.63;2.50;;;;;;;20.00;88.77;93832.22;5095206;28;20202;-79
2021/07/29 08:59:06;;;;;;;6.05;2.20;;;;;;;19.93;84.70;93827.16;5094867;28;20199;-79
2021/07/29 09:01:43;;;;;;;4.43;2.13;;;;;;;20.47;87.87;93834.00;5095385;28;20197;-79
2021/07/29 09:04:12;;;;;;;4.32;2.30;;;;;;;20.80;84.38;93828.53;5095171;28;20236;-78
2021/07/29 09:06:56;;;;;;;4.32;2.33;;;;;;;21.25;81.28;93827.00;5095033;28;20205;-81
2021/07/29 09:09:37;;;;;;;5.85;2.30;;;;;;;20.87;76.38;93835.19;5095213;28;20270;-78
2021/07/29 09:12:14;;;;;;;4.97;2.40;;;;;;;20.60;79.03;93827.41;5094684;28;20194;-77
2021/07/29 09:14:40;;;;;;;4.10;2.30;;;;;;;21.13;80.95;93826.47;5094314;28;20441;-80
2021/07/29 09:17:08;;;;;;;5.20;2.40;;;;;;;21.19;80.06;93826.19;5094835;28;20607;-78
2021/07/29 09:19:37;;;;;;;5.90;2.05;;;;;;;20.52;79.92;93835.88;5094799;28;20289;-79
2021/07/29 09:22:09;;;;;;;6.13;2.60;;;;;;;19.68;83.11;93834.91;5094768;28;20656;-77
2021/07/29 09:24:39;;;;;;;4.45;2.42;;;;;;;19.48;85.59;93846.97;5094782;28;20213;-76
2021/07/29 09:27:06;;;;;;;7.85;2.67;;;;;;;19.66;81.01;93840.47;5094619;28;20679;-76
2021/07/29 09:29:32;;;;;;;4.68;2.63;;;;;;;19.65;77.74;93832.78;5094622;28;20209;-78
2021/07/29 09:32:06;;;;;;;5.80;2.67;;;;;;;20.12;83.92;93837.31;5094335;28;20202;-78
2021/07/29 09:34:44;;;;;;;3.35;2.28;;;;;;;20.43;81.53;93834.78;5094804;28;20233;-79
2021/07/29 09:37:11;;;;;;;7.15;2.92;;;;;;;20.70;80.90;93835.44;5095287;28;20197;-79
2021/07/29 09:39:37;;;;;;;4.05;2.50;;;;;;;20.22;73.95;93844.53;5094652;28;20194;-78
2021/07/29 09:42:18;;;;;;;4.65;2.47;;;;;;;20.39;79.04;93839.03;5094405;28;20747;-78
2021/07/29 09:44:45;;;;;;;4.60;2.47;;;;;;;20.69;73.38;93833.03;5094445;28;20200;-78
2021/07/29 09:47:12;;;;;;;4.90;2.75;;;;;;;20.82;77.57;93827.22;5094318;28;20194;-78
2021/07/29 09:49:41;;;;;;;4.80;2.72;;;;;;;20.66;76.46;93837.00;5094268;28;20208;-77
2021/07/29 09:52:09;;;;;;;4.05;2.67;;;;;;;20.37;76.16;93833.97;5094368;28;20201;-75
2021/07/29 09:54:38;;;;;;;7.15;2.63;;;;;;;20.26;75.73;93834.97;5094153;28;20214;-79
2021/07/29 09:57:06;;;;;;;4.68;2.58;;;;;;;20.26;78.06;93834.97;5094049;28;20557;-78
2021/07/29 09:59:32;;;;;;;5.22;2.83;;;;;;;20.77;75.63;93823.78;5093066;28;20688;-78
2021/07/29 10:02:01;;;;;;;6.22;3.08;;;;;;;21.12;76.09;93822.22;5094200;28;20245;-77
2021/07/29 10:04:33;;;;;;;3.90;2.25;;;;;;;20.94;71.28;93828.84;5093976;28;20284;-77
2021/07/29 10:07:07;;;;;;;5.97;2.80;;;;;;;20.49;76.16;93825.78;5093991;28;20202;-77
2021/07/29 10:09:39;;;;;;;8.02;2.70;;;;;;;19.92;75.96;93824.75;5093861;28;20314;-78
2021/07/29 10:12:08;;;;;;;5.10;2.65;;;;;;;20.47;77.55;93819.94;5094018;28;20202;-77
2021/07/29 10:14:49;;;;;;;4.25;2.80;;;;;;;20.82;77.74;93821.13;5093875;28;20209;-77
2021/07/29 10:17:16;;;;;;;4.85;3.00;;;;;;;20.54;75.22;93809.88;5093792;28;20352;-79
2021/07/29 10:20:20;;;;;;;3.75;2.60;;;;;;;21.27;76.31;93816.91;5093798;28;20288;-78
2021/07/29 10:22:48;;;;;;;4.57;2.72;;;;;;;20.97;72.36;93799.13;5093710;28;20217;-77
2021/07/29 10:25:17;;;;;;;4.70;2.75;;;;;;;20.94;73.58;93807.59;5093635;28;20198;-77
2021/07/29 10:28:16;;;;;;;4.20;2.50;;;;;;;21.04;77.67;93811.06;5093240;28;20293;-77
2021/07/29 10:30:51;;;;;;;4.45;2.72;;;;;;;20.52;71.34;93806.69;5073233;28;20607;-79
2021/07/29 10:33:18;;;;;;;6.43;3.17;;;;;;;20.75;74.91;93804.63;5073253;28;20198;-78
2021/07/29 10:35:45;;;;;;;6.63;3.08;;;;;;;20.95;74.31;93799.38;5072922;28;20736;-79
2021/07/29 10:38:12;;;;;;;4.22;2.83;;;;;;;20.68;72.92;93803.06;5073362;28;20198;-77
2021/07/29 10:40:42;;;;;;;4.50;2.65;;;;;;;20.75;72.85;93802.00;5073049;28;20232;-78
2021/07/29 10:43:40;;;;;;;5.30;2.80;;;;;;;20.77;76.43;93807.84;5072318;28;20719;-78
2021/07/29 10:46:07;;;;;;;6.68;2.92;;;;;;;20.81;73.81;93815.00;5073195;28;20206;-76
2021/07/29 10:49:12;;;;;;;4.63;2.88;;;;;;;20.66;70.28;93805.16;5072995;28;20203;-76
2021/07/29 10:52:06;;;;;;;4.63;2.83;;;;;;;20.95;70.69;93804.69;5073177;28;20198;-78
2021/07/29 10:54:34;;;;;;;4.25;3.00;;;;;;;21.05;72.59;93799.38;5073067;28;20217;-78
2021/07/29 10:57:03;;;;;;;3.70;2.88;;;;;;;21.52;74.16;93786.91;5072950;28;20205;-79
2021/07/29 10:59:30;;;;;;;3.25;2.40;;;;;;;21.14;68.04;93793.53;5072785;28;20203;-77
2021/07/29 11:01:57;;;;;;;4.95;2.70;;;;;;;20.61;69.21;93791.84;5072982;28;20206;-76
2021/07/29 11:04:28;;;;;;;4.32;2.72;;;;;;;20.76;68.71;93782.38;5072891;28;20257;-78
2021/07/29 11:06:59;;;;;;;7.47;3.00;;;;;;;20.80;70.13;93784.22;5073012;28;20207;-76
2021/07/29 11:09:30;;;;;;;4.28;2.45;;;;;;;21.20;70.11;93784.50;5072941;28;20576;-79
2021/07/29 11:11:57;;;;;;;4.40;2.60;;;;;;;21.16;69.71;93791.41;5072811;28;20242;-77
2021/07/29 11:14:27;;;;;;;4.72;2.78;;;;;;;21.31;67.94;93791.41;5072977;28;20416;-78
2021/07/29 11:16:57;;;;;;;5.00;3.10;;;;;;;20.73;68.74;93774.94;5072166;28;20442;-78
2021/07/29 11:19:23;;;;;;;4.68;2.50;;;;;;;20.90;71.38;93788.75;5072733;28;20199;-77
2021/07/29 11:22:03;;;;;;;5.15;2.50;;;;;;;20.76;67.77;93780.50;5072692;28;20202;-80
2021/07/29 11:24:30;;;;;;;5.00;2.50;;;;;;;20.89;67.89;93779.19;5072489;28;20252;-79
2021/07/29 11:26:57;;;;;;;4.20;2.65;;;;;;;21.12;73.12;93779.75;5072777;28;20225;-76
2021/07/29 11:29:25;;;;;;;4.13;2.67;;;;;;;20.98;66.70;93787.41;5072835;28;20199;-76
2021/07/29 11:31:54;;;;;;;5.88;3.05;;;;;;;20.82;69.59;93773.34;5072689;28;20569;-77
2021/07/29 11:34:20;;;;;;;4.22;2.78;;;;;;;20.98;67.94;93782.91;5072345;28;20231;-77